sensor_id;sensor_type;location;lat;lon;timestamp;pressure;altitude;pressure_sealevel;temperature;humidity
19674;BME280;9986;50.610;7.230;2023-09-19T00:30:45;147015.22;;;16.80;100.00
19674;BME280;9986;50.610;7.230;2023-09-19T00:43:55;147008.91;;;16.77;100.00
19674;BME280;9986;50.610;7.230;2023-09-19T00:51:53;146965.91;;;16.60;100.00
19674;BME280;9986;50.610;7.230;2023-09-19T00:59:44;146977.31;;;16.65;100.00
19674;BME280;9986;50.610;7.230;2023-09-19T01:07:40;146970.97;;;16.62;100.00
19674;BME280;9986;50.610;7.230;2023-09-19T01:21:14;146978.56;;;16.65;100.00
19674;BME280;9986;50.610;7.230;2023-09-19T01:26:49;147010.20;;;16.78;100.00
19674;BME280;9986;50.610;7.230;2023-09-19T01:32:10;146950.75;;;16.54;100.00
19674;BME280;9986;50.610;7.230;2023-09-19T01:37:29;147001.31;;;16.74;100.00
19674;BME280;9986;50.610;7.230;2023-09-19T01:50:38;146973.50;;;16.63;100.00
19674;BME280;9986;50.610;7.230;2023-09-19T01:55:53;146973.50;;;16.63;100.00
19674;BME280;9986;50.610;7.230;2023-09-19T02:03:44;146950.75;;;16.54;100.00
19674;BME280;9986;50.610;7.230;2023-09-19T02:11:36;146935.56;;;16.48;100.00
19674;BME280;9986;50.610;7.230;2023-09-19T02:16:50;146910.28;;;16.38;100.00
19674;BME280;9986;50.610;7.230;2023-09-19T02:35:25;146928.00;;;16.45;100.00
19674;BME280;9986;50.610;7.230;2023-09-19T02:40:39;146895.14;;;16.32;100.00
19674;BME280;9986;50.610;7.230;2023-09-19T02:45:55;146910.28;;;16.38;100.00
19674;BME280;9986;50.610;7.230;2023-09-19T02:51:09;146915.34;;;16.40;100.00
19674;BME280;9986;50.610;7.230;2023-09-19T02:58:57;146897.63;;;16.33;100.00
19674;BME280;9986;50.610;7.230;2023-09-19T03:06:47;146879.89;;;16.26;100.00
19674;BME280;9986;50.610;7.230;2023-09-19T03:12:03;146869.77;;;16.22;100.00
19674;BME280;9986;50.610;7.230;2023-09-19T03:17:17;146844.50;;;16.12;100.00
19674;BME280;9986;50.610;7.230;2023-09-19T03:30:38;146804.05;;;15.96;100.00
19674;BME280;9986;50.610;7.230;2023-09-19T03:35:54;146804.05;;;15.96;100.00
19674;BME280;9986;50.610;7.230;2023-09-19T03:46:33;146775.02;;;15.85;100.00
19674;BME280;9986;50.610;7.230;2023-09-19T03:51:47;146798.98;;;15.94;100.00
19674;BME280;9986;50.610;7.230;2023-09-19T03:59:46;146798.98;;;15.94;100.00
19674;BME280;9986;50.610;7.230;2023-09-19T04:04:59;146778.78;;;15.87;100.00
19674;BME280;9986;50.610;7.230;2023-09-19T04:10:12;146728.27;;;15.67;100.00
19674;BME280;9986;50.610;7.230;2023-09-19T04:15:34;146763.59;;;15.81;100.00
19674;BME280;9986;50.610;7.230;2023-09-19T04:20:52;146758.58;;;15.79;100.00
19674;BME280;9986;50.610;7.230;2023-09-19T04:26:02;146763.59;;;15.81;100.00
19674;BME280;9986;50.610;7.230;2023-09-19T04:31:16;146756.05;;;15.78;100.00
19674;BME280;9986;50.610;7.230;2023-09-19T04:36:30;146713.08;;;15.61;100.00
19674;BME280;9986;50.610;7.230;2023-09-19T04:49:31;146753.52;;;15.77;100.00
19674;BME280;9986;50.610;7.230;2023-09-19T04:54:44;146701.72;;;15.56;100.00
19674;BME280;9986;50.610;7.230;2023-09-19T05:05:19;146680.23;;;15.48;100.00
19674;BME280;9986;50.610;7.230;2023-09-19T05:13:22;146668.88;;;15.43;100.00
19674;BME280;9986;50.610;7.230;2023-09-19T05:22:00;146657.52;;;15.40;100.00
19674;BME280;9986;50.610;7.230;2023-09-19T05:30:00;146671.41;;;15.44;100.00
19674;BME280;9986;50.610;7.230;2023-09-19T05:37:56;146657.52;;;15.39;100.00
19674;BME280;9986;50.610;7.230;2023-09-19T05:43:10;146576.63;;;15.07;100.00
19674;BME280;9986;50.610;7.230;2023-09-19T05:51:01;146532.44;;;14.90;100.00
19674;BME280;9986;50.610;7.230;2023-09-19T05:58:52;146527.38;;;14.88;100.00
19674;BME280;9986;50.610;7.230;2023-09-19T06:12:11;146579.14;;;15.08;100.00
19674;BME280;9986;50.610;7.230;2023-09-19T06:41:34;146647.41;;;15.35;100.00
19674;BME280;9986;50.610;7.230;2023-09-19T06:57:38;146656.22;;;15.38;100.00
19674;BME280;9986;50.610;7.230;2023-09-19T07:05:37;146666.34;;;15.42;100.00
19674;BME280;9986;50.610;7.230;2023-09-19T07:37:33;146772.48;;;15.88;100.00
19674;BME280;9986;50.610;7.230;2023-09-19T07:53:30;146840.73;;;16.11;100.00
19674;BME280;9986;50.610;7.230;2023-09-19T08:01:21;146873.59;;;16.24;100.00
19674;BME280;9986;50.610;7.230;2023-09-19T08:06:36;146910.28;;;16.38;100.00
19674;BME280;9986;50.610;7.230;2023-09-19T08:22:28;146972.25;;;16.63;100.00
19674;BME280;9986;50.610;7.230;2023-09-19T08:30:27;146997.53;;;16.73;100.00
19674;BME280;9986;50.610;7.230;2023-09-19T08:51:51;147084.81;;;17.07;100.00
19674;BME280;9986;50.610;7.230;2023-09-19T08:57:07;147115.17;;;17.19;100.00
19674;BME280;9986;50.610;7.230;2023-09-19T09:02:26;147122.78;;;17.22;100.00
19674;BME280;9986;50.610;7.230;2023-09-19T09:10:19;147127.80;;;17.24;100.00
19674;BME280;9986;50.610;7.230;2023-09-19T09:15:36;147154.44;;;17.34;100.00
19674;BME280;9986;50.610;7.230;2023-09-19T09:20:44;147206.31;;;17.55;100.00
19674;BME280;9986;50.610;7.230;2023-09-19T09:25:59;147224.06;;;17.62;100.00
19674;BME280;9986;50.610;7.230;2023-09-19T09:36:42;147224.06;;;17.62;100.00
19674;BME280;9986;50.610;7.230;2023-09-19T09:41:56;147267.06;;;17.79;100.00
19674;BME280;9986;50.610;7.230;2023-09-19T09:47:10;147293.66;;;17.89;100.00
19674;BME280;9986;50.610;7.230;2023-09-19T09:58:18;147346.81;;;18.10;100.00
19674;BME280;9986;50.610;7.230;2023-09-19T10:09:03;147410.22;;;18.35;100.00
19674;BME280;9986;50.610;7.230;2023-09-19T10:14:29;147408.94;;;18.34;100.00
19674;BME280;9986;50.610;7.230;2023-09-19T10:22:29;147481.11;;;18.63;100.00
19674;BME280;9986;50.610;7.230;2023-09-19T10:38:25;147549.53;;;18.89;100.00
19674;BME280;9986;50.610;7.230;2023-09-19T10:43:40;147540.69;;;18.86;100.00
19674;BME280;9986;50.610;7.230;2023-09-19T11:11:45;147746.08;;;19.67;100.00
19674;BME280;9986;50.610;7.230;2023-09-19T11:43:31;148093.77;;;21.03;100.00
19674;BME280;9986;50.610;7.230;2023-09-19T11:51:39;148001.09;;;20.67;100.00
19674;BME280;9986;50.610;7.230;2023-09-19T11:56:45;148053.19;;;20.87;100.00
19674;BME280;9986;50.610;7.230;2023-09-19T12:02:00;148046.81;;;20.84;100.00
19674;BME280;9986;50.610;7.230;2023-09-19T12:10:03;148121.73;;;21.14;100.00
19674;BME280;9986;50.610;7.230;2023-09-19T12:23:24;148289.42;;;21.79;97.86
19674;BME280;9986;50.610;7.230;2023-09-19T12:52:48;148544.88;;;22.79;90.16
19674;BME280;9986;50.610;7.230;2023-09-19T12:58:11;148557.59;;;22.84;93.62
19674;BME280;9986;50.610;7.230;2023-09-19T13:03:28;148670.83;;;23.29;89.04
19674;BME280;9986;50.610;7.230;2023-09-19T13:08:39;148735.72;;;23.54;89.63
19674;BME280;9986;50.610;7.230;2023-09-19T13:14:12;148782.78;;;23.72;84.25
19674;BME280;9986;50.610;7.230;2023-09-19T13:24:26;148757.34;;;23.63;89.80
19674;BME280;9986;50.610;7.230;2023-09-19T13:34:57;148803.19;;;23.80;87.17
19674;BME280;9986;50.610;7.230;2023-09-19T13:40:12;148836.27;;;23.93;86.92
19674;BME280;9986;50.610;7.230;2023-09-19T13:53:28;148880.80;;;24.11;85.80
19674;BME280;9986;50.610;7.230;2023-09-19T14:09:24;148915.19;;;24.24;82.50
19674;BME280;9986;50.610;7.230;2023-09-19T14:22:52;149004.34;;;24.59;80.43
19674;BME280;9986;50.610;7.230;2023-09-19T14:28:05;148887.20;;;24.13;79.11
19674;BME280;9986;50.610;7.230;2023-09-19T14:46:49;148725.53;;;23.50;81.68
19674;BME280;9986;50.610;7.230;2023-09-19T14:52:02;148681.02;;;23.33;82.37
19674;BME280;9986;50.610;7.230;2023-09-19T14:59:49;148632.66;;;23.14;82.09
19674;BME280;9986;50.610;7.230;2023-09-19T15:05:03;148683.56;;;23.34;83.03
19674;BME280;9986;50.610;7.230;2023-09-19T15:55:53;148440.67;;;22.39;92.07
19674;BME280;9986;50.610;7.230;2023-09-19T16:03:46;148340.22;;;21.99;92.92
19674;BME280;9986;50.610;7.230;2023-09-19T16:08:59;148326.25;;;21.94;94.56
19674;BME280;9986;50.610;7.230;2023-09-19T16:14:14;148276.70;;;21.74;96.68
19674;BME280;9986;50.610;7.230;2023-09-19T16:22:11;148196.64;;;21.43;100.00
19674;BME280;9986;50.610;7.230;2023-09-19T16:27:28;148083.64;;;20.99;100.00
19674;BME280;9986;50.610;7.230;2023-09-19T16:35:19;148171.25;;;21.33;100.00
19674;BME280;9986;50.610;7.230;2023-09-19T16:48:32;148227.11;;;21.55;100.00
19674;BME280;9986;50.610;7.230;2023-09-19T17:04:39;148162.33;;;21.30;100.00
19674;BME280;9986;50.610;7.230;2023-09-19T17:10:08;148101.39;;;21.06;100.00
19674;BME280;9986;50.610;7.230;2023-09-19T17:20:42;148012.52;;;20.71;100.00
19674;BME280;9986;50.610;7.230;2023-09-19T17:36:41;147908.45;;;20.30;100.00
19674;BME280;9986;50.610;7.230;2023-09-19T17:44:34;147822.22;;;19.96;100.00
19674;BME280;9986;50.610;7.230;2023-09-19T17:49:48;147819.63;;;19.95;100.00
19674;BME280;9986;50.610;7.230;2023-09-19T17:57:39;147770.17;;;19.76;100.00
19674;BME280;9986;50.610;7.230;2023-09-19T18:02:53;147768.88;;;19.75;100.00
19674;BME280;9986;50.610;7.230;2023-09-19T18:10:45;147742.28;;;19.65;100.00
19674;BME280;9986;50.610;7.230;2023-09-19T18:15:58;147723.27;;;19.58;100.00
19674;BME280;9986;50.610;7.230;2023-09-19T18:21:10;147744.78;;;19.66;100.00
19674;BME280;9986;50.610;7.230;2023-09-19T18:29:06;147687.77;;;19.44;100.00
19674;BME280;9986;50.610;7.230;2023-09-19T18:34:19;147654.81;;;19.31;100.00
19674;BME280;9986;50.610;7.230;2023-09-19T19:09:05;147612.94;;;19.14;100.00
19674;BME280;9986;50.610;7.230;2023-09-19T19:14:20;147562.22;;;18.94;100.00
19674;BME280;9986;50.610;7.230;2023-09-19T19:19:33;147557.16;;;18.92;100.00
19674;BME280;9986;50.610;7.230;2023-09-19T19:30:01;147541.97;;;18.86;100.00
19674;BME280;9986;50.610;7.230;2023-09-19T19:35:15;147540.69;;;18.86;100.00
19674;BME280;9986;50.610;7.230;2023-09-19T19:43:07;147527.98;;;18.81;100.00
19674;BME280;9986;50.610;7.230;2023-09-19T20:10:05;147538.14;;;18.85;100.00
19674;BME280;9986;50.610;7.230;2023-09-19T20:23:28;147541.97;;;18.86;100.00
19674;BME280;9986;50.610;7.230;2023-09-19T20:28:37;147560.94;;;18.94;100.00
19674;BME280;9986;50.610;7.230;2023-09-19T20:39:06;147581.23;;;19.02;100.00
19674;BME280;9986;50.610;7.230;2023-09-19T20:49:49;147514.06;;;18.76;100.00
19674;BME280;9986;50.610;7.230;2023-09-19T20:57:44;147502.66;;;18.71;100.00
19674;BME280;9986;50.610;7.230;2023-09-19T21:02:58;147482.41;;;18.63;100.00
19674;BME280;9986;50.610;7.230;2023-09-19T21:18:51;147553.38;;;18.91;100.00
19674;BME280;9986;50.610;7.230;2023-09-19T21:34:35;147497.59;;;18.69;100.00
19674;BME280;9986;50.610;7.230;2023-09-19T21:47:51;147511.52;;;18.75;100.00
19674;BME280;9986;50.610;7.230;2023-09-19T21:55:50;147525.50;;;18.80;100.00
19674;BME280;9986;50.610;7.230;2023-09-19T22:03:48;147535.59;;;18.84;100.00
19674;BME280;9986;50.610;7.230;2023-09-19T22:09:01;147538.14;;;18.85;100.00
19674;BME280;9986;50.610;7.230;2023-09-19T22:27:37;147536.89;;;18.84;100.00
19674;BME280;9986;50.610;7.230;2023-09-19T22:35:26;147511.52;;;18.75;100.00
19674;BME280;9986;50.610;7.230;2023-09-19T22:46:02;147469.72;;;18.58;100.00
19674;BME280;9986;50.610;7.230;2023-09-19T22:53:57;147459.62;;;18.54;100.00
19674;BME280;9986;50.610;7.230;2023-09-19T23:07:05;147455.80;;;18.53;100.00
19674;BME280;9986;50.610;7.230;2023-09-19T23:20:22;147462.11;;;18.55;100.00
19674;BME280;9986;50.610;7.230;2023-09-19T23:25:37;147427.94;;;18.42;100.00
19674;BME280;9986;50.610;7.230;2023-09-19T23:30:51;147392.47;;;18.28;100.00
19674;BME280;9986;50.610;7.230;2023-09-19T23:41:30;147378.55;;;18.22;100.00
